createdAt,value
2023-02-14T00:01:12.927Z,19.50
2023-02-14T00:03:40.180Z,19.87
2023-02-14T00:06:09.087Z,19.00
2023-02-14T00:08:36.922Z,18.33
2023-02-14T00:11:05.695Z,19.47
2023-02-14T00:13:32.686Z,20.73
2023-02-14T00:15:59.783Z,20.33
2023-02-14T00:18:46.792Z,20.00
2023-02-14T00:21:13.770Z,18.70
2023-02-14T00:23:41.017Z,18.33
2023-02-14T00:26:14.777Z,19.67
2023-02-14T00:28:45.079Z,19.37
2023-02-14T00:31:12.322Z,18.80
2023-02-14T00:33:39.369Z,20.03
2023-02-14T00:36:07.606Z,19.50
2023-02-14T00:38:34.972Z,18.97
2023-02-14T00:41:02.480Z,18.60
2023-02-14T00:43:29.639Z,19.50
2023-02-14T00:45:56.697Z,18.93
2023-02-14T00:48:23.602Z,19.43
2023-02-14T00:50:50.609Z,18.77
2023-02-14T00:53:17.604Z,18.20
2023-02-14T00:55:47.407Z,19.07
2023-02-14T00:58:14.422Z,19.07
2023-02-14T01:00:41.379Z,18.93
2023-02-14T01:03:08.480Z,19.30
2023-02-14T01:05:35.405Z,17.70
2023-02-14T01:08:02.376Z,19.17
2023-02-14T01:10:29.536Z,19.53
2023-02-14T01:12:56.606Z,19.30
2023-02-14T01:15:23.631Z,20.33
2023-02-14T01:17:50.427Z,18.83
2023-02-14T01:20:17.390Z,18.70
2023-02-14T01:22:44.488Z,21.03
2023-02-14T01:25:11.605Z,19.07
2023-02-14T01:27:38.491Z,20.20
2023-02-14T01:30:06.250Z,19.50
2023-02-14T01:32:34.333Z,19.87
2023-02-14T01:35:01.367Z,18.93
2023-02-14T01:37:29.700Z,19.27
2023-02-14T01:39:56.489Z,18.83
2023-02-14T01:42:23.331Z,20.60
2023-02-14T01:44:50.232Z,18.80
2023-02-14T01:47:17.883Z,20.43
2023-02-14T01:49:52.074Z,19.97
2023-02-14T01:52:31.770Z,19.27
2023-02-14T01:55:02.722Z,18.20
2023-02-14T01:57:36.865Z,20.10
2023-02-14T02:00:24.073Z,21.43
2023-02-14T02:02:51.383Z,20.27
2023-02-14T02:05:23.928Z,19.23
2023-02-14T02:07:53.213Z,19.40
2023-02-14T02:10:20.353Z,19.63
2023-02-14T02:12:49.540Z,20.07
2023-02-14T02:15:16.708Z,18.37
2023-02-14T02:17:49.804Z,19.17
2023-02-14T02:20:34.152Z,18.37
2023-02-14T02:23:26.615Z,19.40
2023-02-14T02:26:04.452Z,19.30
2023-02-14T02:28:40.130Z,18.90
2023-02-14T02:31:26.216Z,20.20
2023-02-14T02:34:34.591Z,19.17
2023-02-14T02:37:13.713Z,19.93
2023-02-14T02:40:06.327Z,20.37
2023-02-14T02:43:10.507Z,19.07
2023-02-14T02:46:14.985Z,18.47
2023-02-14T02:48:53.845Z,20.83
2023-02-14T02:51:52.260Z,19.63
2023-02-14T02:54:50.329Z,20.70
2023-02-14T02:57:26.613Z,19.50
2023-02-14T02:59:56.356Z,20.00
2023-02-14T03:02:33.717Z,20.90
2023-02-14T03:05:05.775Z,21.03
2023-02-14T03:07:37.063Z,18.67
2023-02-14T03:10:16.595Z,20.13
2023-02-14T03:12:57.804Z,20.07
2023-02-14T03:15:39.781Z,20.13
2023-02-14T03:18:25.027Z,19.40
2023-02-14T03:21:29.298Z,20.27
2023-02-14T03:24:15.218Z,19.70
2023-02-14T03:26:53.665Z,19.17
2023-02-14T03:29:29.796Z,18.83
2023-02-14T03:32:21.172Z,20.83
2023-02-14T03:35:01.844Z,20.33
2023-02-14T03:37:48.287Z,18.30
2023-02-14T03:40:21.102Z,19.43
2023-02-14T03:43:03.214Z,20.10
2023-02-14T03:45:34.859Z,20.00
2023-02-14T03:48:07.997Z,21.13
2023-02-14T03:50:39.014Z,21.37
2023-02-14T03:53:09.747Z,19.73
2023-02-14T03:55:55.428Z,18.60
2023-02-14T03:58:30.025Z,19.93
2023-02-14T04:01:04.658Z,20.70
2023-02-14T04:03:33.541Z,20.63
2023-02-14T04:06:01.005Z,21.50
2023-02-14T04:08:30.118Z,20.27
2023-02-14T04:11:00.810Z,19.93
2023-02-14T04:13:28.215Z,20.60
2023-02-14T04:15:55.327Z,20.40
2023-02-14T04:18:41.103Z,21.63
2023-02-14T04:21:16.528Z,19.83
2023-02-14T04:23:43.712Z,19.53
2023-02-14T04:26:13.869Z,19.20
2023-02-14T04:28:40.857Z,18.87
2023-02-14T04:31:07.965Z,20.10
2023-02-14T04:33:35.030Z,20.53
2023-02-14T04:36:02.083Z,21.80
2023-02-14T04:38:29.416Z,22.00
2023-02-14T04:40:56.268Z,20.80
2023-02-14T04:43:23.299Z,21.40
2023-02-14T04:45:50.079Z,21.40
2023-02-14T04:48:17.095Z,20.50
2023-02-14T04:50:44.022Z,20.80
2023-02-14T04:53:11.031Z,22.40
2023-02-14T04:55:40.045Z,21.53
2023-02-14T04:58:09.545Z,22.33
2023-02-14T05:00:36.577Z,22.73
2023-02-14T05:03:03.658Z,22.90
2023-02-14T05:05:30.579Z,23.27
2023-02-14T05:07:57.544Z,24.03
2023-02-14T05:10:24.566Z,23.37
2023-02-14T05:12:51.431Z,22.63
2023-02-14T05:15:18.579Z,24.13
2023-02-14T05:17:45.451Z,23.80
2023-02-14T05:20:12.486Z,24.63
2023-02-14T05:22:39.343Z,23.00
2023-02-14T05:25:06.794Z,23.30
2023-02-14T05:27:33.860Z,22.37
2023-02-14T05:30:00.690Z,23.20
2023-02-14T05:32:27.609Z,22.97
2023-02-14T05:34:54.542Z,23.47
2023-02-14T05:37:21.611Z,25.00
2023-02-14T05:39:48.638Z,24.17
2023-02-14T05:42:15.408Z,25.13
2023-02-14T05:44:42.653Z,24.87
2023-02-14T05:47:11.048Z,24.23
2023-02-14T05:49:39.750Z,23.97
2023-02-14T05:52:06.945Z,28.17
2023-02-14T05:54:33.975Z,24.60
2023-02-14T05:57:00.843Z,22.30
2023-02-14T05:59:27.655Z,21.47
2023-02-14T06:01:54.675Z,21.97
2023-02-14T06:04:21.739Z,21.03
2023-02-14T06:06:48.600Z,21.93
2023-02-14T06:09:15.523Z,22.77
2023-02-14T06:11:42.400Z,21.13
2023-02-14T06:14:09.365Z,22.37
2023-02-14T06:16:36.681Z,23.40
2023-02-14T06:19:03.823Z,22.17
2023-02-14T06:21:30.724Z,22.67
2023-02-14T06:23:57.912Z,23.90
2023-02-14T06:26:28.086Z,22.13
2023-02-14T06:28:59.383Z,22.80
2023-02-14T06:31:26.729Z,22.60
2023-02-14T06:33:54.086Z,22.37
2023-02-14T06:36:22.028Z,22.57
2023-02-14T06:38:49.553Z,22.47
2023-02-14T06:41:19.770Z,21.23
2023-02-14T06:43:50.400Z,20.93
2023-02-14T06:46:18.865Z,20.27
2023-02-14T06:48:46.080Z,21.17
2023-02-14T06:51:13.771Z,22.37
2023-02-14T06:53:40.826Z,22.90
2023-02-14T06:56:08.085Z,22.10
2023-02-14T06:58:39.728Z,22.87
2023-02-14T07:01:06.855Z,24.63
2023-02-14T07:03:33.918Z,22.93
2023-02-14T07:06:00.988Z,22.63
2023-02-14T07:08:28.208Z,22.63
2023-02-14T07:10:59.450Z,22.77
2023-02-14T07:13:27.117Z,24.00
2023-02-14T07:15:54.229Z,22.20
2023-02-14T07:18:21.394Z,22.10
2023-02-14T07:20:50.174Z,21.57
2023-02-14T07:23:17.131Z,21.87
2023-02-14T07:25:44.186Z,22.13
2023-02-14T07:28:11.345Z,21.70
2023-02-14T07:30:38.233Z,21.77
2023-02-14T07:33:05.260Z,21.40
2023-02-14T07:35:32.210Z,23.30
2023-02-14T07:37:59.397Z,22.30
2023-02-14T07:40:26.362Z,22.13
2023-02-14T07:42:55.069Z,22.80
2023-02-14T07:45:22.935Z,21.63
2023-02-14T07:47:52.055Z,22.07
2023-02-14T07:50:20.076Z,20.50
2023-02-14T07:52:47.348Z,22.27
2023-02-14T07:55:14.784Z,21.93
2023-02-14T07:57:41.623Z,20.97
2023-02-14T08:00:09.428Z,20.93
2023-02-14T08:02:36.318Z,21.37
2023-02-14T08:05:03.413Z,21.03
2023-02-14T08:07:30.381Z,22.03
2023-02-14T08:09:57.260Z,21.80
2023-02-14T08:12:42.546Z,19.90
2023-02-14T08:15:27.859Z,20.90
2023-02-14T08:17:56.784Z,19.17
2023-02-14T08:20:23.748Z,19.53
2023-02-14T08:22:50.568Z,19.27
2023-02-14T08:25:17.628Z,17.83
2023-02-14T08:27:44.558Z,17.87
2023-02-14T08:30:12.164Z,17.67
2023-02-14T08:32:39.748Z,16.93
2023-02-14T08:35:07.321Z,16.80
2023-02-14T08:37:36.650Z,17.20
2023-02-14T08:40:03.806Z,16.67
2023-02-14T08:42:31.338Z,16.07
2023-02-14T08:44:58.270Z,16.13
2023-02-14T08:47:25.387Z,16.73
2023-02-14T08:49:53.790Z,16.60
2023-02-14T08:52:20.738Z,16.10
2023-02-14T08:54:47.502Z,17.17
2023-02-14T08:57:15.836Z,16.57
2023-02-14T08:59:42.959Z,15.83
2023-02-14T09:02:13.793Z,16.30
2023-02-14T09:04:40.893Z,15.90
2023-02-14T09:07:08.300Z,16.40
2023-02-14T09:09:37.832Z,16.93
2023-02-14T09:12:07.242Z,16.40
2023-02-14T09:14:39.300Z,15.50
2023-02-14T09:17:06.908Z,16.17
2023-02-14T09:19:34.790Z,16.23
2023-02-14T09:22:04.192Z,15.97
2023-02-14T09:24:32.622Z,15.87
2023-02-14T09:27:00.134Z,16.30
2023-02-14T09:29:28.305Z,16.53
2023-02-14T09:31:57.271Z,16.33
2023-02-14T09:34:24.434Z,16.37
2023-02-14T09:37:10.219Z,17.37
2023-02-14T09:39:39.181Z,15.80
2023-02-14T09:42:38.970Z,16.30
2023-02-14T09:45:22.821Z,17.20
2023-02-14T09:47:54.410Z,14.77
2023-02-14T09:50:30.701Z,16.27
2023-02-14T09:53:03.057Z,14.77
2023-02-14T09:55:39.794Z,15.90
2023-02-14T09:58:19.909Z,15.60
2023-02-14T10:00:56.450Z,15.60
2023-02-14T10:03:54.596Z,14.97
2023-02-14T10:06:48.102Z,15.43
2023-02-14T10:09:38.777Z,14.77
2023-02-14T10:12:14.637Z,14.80
2023-02-14T10:14:41.992Z,14.17
2023-02-14T10:17:14.230Z,14.70
2023-02-14T10:19:51.910Z,16.63
2023-02-14T10:22:29.027Z,15.37
2023-02-14T10:25:04.948Z,14.83
2023-02-14T10:27:40.497Z,15.30
2023-02-14T10:30:13.702Z,16.07
2023-02-14T10:33:04.969Z,15.23
2023-02-14T10:35:48.938Z,15.73
2023-02-14T10:38:48.973Z,16.23
2023-02-14T10:41:23.933Z,16.03
2023-02-14T10:44:24.146Z,15.20
2023-02-14T10:46:54.180Z,15.00
2023-02-14T10:49:46.296Z,15.40
2023-02-14T10:52:24.332Z,15.63
2023-02-14T10:54:56.242Z,16.00
2023-02-14T10:57:36.703Z,15.97
2023-02-14T11:00:07.677Z,15.77
2023-02-14T11:02:44.059Z,14.97
2023-02-14T11:05:46.537Z,15.73
2023-02-14T11:08:39.007Z,15.33
2023-02-14T11:11:22.482Z,15.80
2023-02-14T11:13:49.499Z,16.03
2023-02-14T11:16:32.765Z,15.50
2023-02-14T11:19:14.491Z,15.60
2023-02-14T11:21:44.499Z,16.53
2023-02-14T11:24:31.679Z,16.83
2023-02-14T11:27:02.787Z,15.40
2023-02-14T11:29:53.196Z,15.83
2023-02-14T11:32:32.003Z,16.23
2023-02-14T11:35:01.689Z,16.00
2023-02-14T11:37:39.973Z,17.30
2023-02-14T11:40:08.058Z,16.37
2023-02-14T11:42:43.055Z,16.33
2023-02-14T11:45:35.912Z,16.23
2023-02-14T11:48:37.371Z,16.47
2023-02-14T11:51:06.778Z,16.73
2023-02-14T11:53:47.394Z,17.30
2023-02-14T11:56:17.775Z,16.60
2023-02-14T11:58:56.776Z,16.37
2023-02-14T12:01:29.221Z,17.27
2023-02-14T12:04:00.215Z,16.47
2023-02-14T12:06:30.688Z,15.93
2023-02-14T12:09:35.417Z,16.33
2023-02-14T12:12:15.312Z,17.03
2023-02-14T12:14:42.272Z,15.57
2023-02-14T12:17:11.915Z,16.00
2023-02-14T12:20:03.018Z,16.27
2023-02-14T12:22:57.923Z,16.87
2023-02-14T12:25:30.325Z,16.87
2023-02-14T12:28:07.764Z,16.20
2023-02-14T12:30:35.792Z,16.50
2023-02-14T12:33:05.405Z,16.70
2023-02-14T12:35:52.602Z,17.27
2023-02-14T12:38:41.275Z,16.17
2023-02-14T12:41:23.200Z,16.47
2023-02-14T12:43:55.555Z,17.10
2023-02-14T12:46:52.086Z,16.97
2023-02-14T12:49:37.970Z,16.10
2023-02-14T12:52:14.372Z,15.67
2023-02-14T12:55:10.168Z,17.10
2023-02-14T12:58:18.586Z,16.83
2023-02-14T13:01:09.527Z,16.63
2023-02-14T13:03:44.441Z,16.90
2023-02-14T13:06:28.283Z,16.70
2023-02-14T13:09:13.705Z,16.43
2023-02-14T13:11:55.703Z,17.00
2023-02-14T13:14:51.756Z,15.87
2023-02-14T13:17:34.956Z,16.73
2023-02-14T13:20:48.425Z,17.27
2023-02-14T13:23:21.256Z,16.73
2023-02-14T13:25:58.089Z,16.13
2023-02-14T13:28:27.470Z,16.37
2023-02-14T13:30:56.283Z,17.07
2023-02-14T13:33:38.366Z,17.47
2023-02-14T13:36:14.134Z,18.03
2023-02-14T13:38:52.417Z,17.77
2023-02-14T13:41:21.210Z,15.73
2023-02-14T13:44:08.575Z,16.63
2023-02-14T13:46:36.253Z,16.70
2023-02-14T13:49:24.220Z,16.43
2023-02-14T13:51:57.751Z,17.87
2023-02-14T13:54:49.030Z,16.67
2023-02-14T13:57:36.881Z,15.37
2023-02-14T14:00:19.133Z,16.20
2023-02-14T14:02:48.458Z,16.90
2023-02-14T14:05:30.818Z,16.83
2023-02-14T14:08:28.800Z,16.47
2023-02-14T14:11:02.341Z,17.30
2023-02-14T14:13:41.562Z,16.53
2023-02-14T14:16:36.773Z,17.50
2023-02-14T14:19:29.327Z,16.00
2023-02-14T14:22:15.177Z,16.00
2023-02-14T14:24:53.616Z,16.30
2023-02-14T14:27:24.943Z,16.23
2023-02-14T14:29:55.681Z,16.23
2023-02-14T14:32:37.518Z,16.50
2023-02-14T14:35:25.031Z,16.43
2023-02-14T14:37:57.204Z,17.57
2023-02-14T14:40:27.510Z,15.93
2023-02-14T14:42:58.695Z,17.20
2023-02-14T14:45:28.559Z,18.13
2023-02-14T14:48:08.699Z,15.10
2023-02-14T14:50:36.853Z,17.00
2023-02-14T14:53:21.782Z,16.87
2023-02-14T14:55:52.283Z,16.20
2023-02-14T14:58:36.093Z,16.90
2023-02-14T15:01:04.454Z,16.27
2023-02-14T15:03:34.036Z,16.23
2023-02-14T15:06:17.928Z,16.00
2023-02-14T15:08:45.519Z,16.43
2023-02-14T15:11:50.712Z,16.60
2023-02-14T15:14:21.532Z,16.50
2023-02-14T15:16:57.922Z,16.03
2023-02-14T15:19:41.439Z,16.93
2023-02-14T15:22:34.062Z,16.10
2023-02-14T15:25:01.022Z,16.67
2023-02-14T15:27:31.196Z,16.70
2023-02-14T15:30:01.240Z,17.23
2023-02-14T15:32:38.515Z,16.40
2023-02-14T15:35:07.027Z,15.97
2023-02-14T15:37:34.809Z,15.90
2023-02-14T15:40:02.628Z,18.23
2023-02-14T15:42:34.877Z,17.70
2023-02-14T15:45:24.480Z,16.43
2023-02-14T15:47:54.663Z,15.77
2023-02-14T15:50:26.619Z,15.47
2023-02-14T15:53:05.675Z,16.60
2023-02-14T15:55:33.833Z,15.37
2023-02-14T15:58:07.326Z,16.43
2023-02-14T16:00:35.878Z,16.33
2023-02-14T16:03:06.615Z,16.43
2023-02-14T16:05:33.722Z,16.60
2023-02-14T16:08:06.479Z,17.27
2023-02-14T16:10:35.296Z,16.53
2023-02-14T16:13:06.936Z,15.77
2023-02-14T16:15:39.058Z,16.37
2023-02-14T16:18:18.936Z,17.03
2023-02-14T16:20:49.023Z,18.23
2023-02-14T16:23:16.008Z,16.43
2023-02-14T16:25:42.885Z,15.93
2023-02-14T16:28:10.109Z,16.87
2023-02-14T16:30:39.585Z,16.07
2023-02-14T16:33:11.483Z,16.60
2023-02-14T16:35:40.578Z,17.07
2023-02-14T16:38:15.819Z,16.97
2023-02-14T16:40:52.737Z,16.33
2023-02-14T16:43:21.180Z,17.20
2023-02-14T16:45:48.784Z,16.07
2023-02-14T16:48:18.626Z,17.83
2023-02-14T16:50:46.474Z,16.47
2023-02-14T16:53:24.280Z,17.97
2023-02-14T16:55:53.623Z,17.63
2023-02-14T16:58:23.342Z,18.33
2023-02-14T17:00:50.378Z,16.83
2023-02-14T17:03:17.368Z,18.07
2023-02-14T17:05:44.621Z,17.37
2023-02-14T17:08:13.854Z,18.03
2023-02-14T17:10:43.652Z,18.43
2023-02-14T17:13:11.793Z,18.00
2023-02-14T17:15:40.070Z,18.53
2023-02-14T17:18:13.146Z,17.77
2023-02-14T17:20:40.733Z,18.10
2023-02-14T17:23:07.701Z,18.43
2023-02-14T17:25:35.502Z,18.30
2023-02-14T17:28:02.383Z,18.47
2023-02-14T17:30:29.554Z,18.10
2023-02-14T17:32:56.597Z,17.47
2023-02-14T17:35:29.047Z,18.80
2023-02-14T17:37:55.828Z,17.20
2023-02-14T17:40:22.883Z,17.90
2023-02-14T17:42:49.854Z,18.70
2023-02-14T17:45:16.766Z,17.63
2023-02-14T17:47:47.193Z,18.50
2023-02-14T17:50:15.973Z,19.00
2023-02-14T17:52:43.085Z,19.10
2023-02-14T17:55:10.101Z,18.40
2023-02-14T17:57:39.347Z,19.43
2023-02-14T18:00:07.223Z,17.90
2023-02-14T18:02:34.427Z,17.57
2023-02-14T18:05:01.552Z,18.23
2023-02-14T18:07:29.168Z,18.50
2023-02-14T18:09:58.774Z,17.73
2023-02-14T18:12:25.882Z,18.43
2023-02-14T18:14:53.741Z,18.57
2023-02-14T18:17:20.751Z,17.23
2023-02-14T18:19:52.932Z,17.60
2023-02-14T18:22:20.305Z,18.60
2023-02-14T18:24:47.310Z,17.53
2023-02-14T18:27:16.247Z,17.77
2023-02-14T18:29:43.105Z,18.43
2023-02-14T18:32:12.933Z,19.07
2023-02-14T18:34:39.790Z,19.27
2023-02-14T18:37:06.680Z,19.73
2023-02-14T18:39:34.032Z,18.67
2023-02-14T18:42:01.693Z,19.73
2023-02-14T18:44:29.546Z,19.10
2023-02-14T18:46:56.583Z,19.57
2023-02-14T18:49:26.273Z,18.30
2023-02-14T18:51:53.700Z,18.97
2023-02-14T18:54:20.766Z,19.13
2023-02-14T18:56:50.990Z,18.17
2023-02-14T18:59:18.193Z,19.00
2023-02-14T19:01:46.024Z,17.37
2023-02-14T19:04:13.687Z,20.30
2023-02-14T19:06:42.184Z,18.43
2023-02-14T19:09:16.337Z,17.73
2023-02-14T19:11:43.883Z,18.50
2023-02-14T19:14:12.801Z,18.23
2023-02-14T19:16:44.301Z,19.80
2023-02-14T19:19:11.645Z,19.20
2023-02-14T19:21:38.948Z,19.23
2023-02-14T19:24:07.236Z,18.37
2023-02-14T19:26:40.426Z,19.10
2023-02-14T19:29:11.793Z,18.70
2023-02-14T19:31:41.798Z,18.27
2023-02-14T19:34:17.046Z,18.20
2023-02-14T19:36:44.368Z,19.17
2023-02-14T19:39:12.940Z,17.77
2023-02-14T19:41:40.459Z,17.80
2023-02-14T19:44:09.724Z,18.10
2023-02-14T19:46:38.376Z,18.63
2023-02-14T19:49:05.770Z,17.60
2023-02-14T19:51:36.189Z,18.93
2023-02-14T19:54:07.252Z,18.63
2023-02-14T19:56:45.275Z,17.67
2023-02-14T19:59:16.696Z,17.67
2023-02-14T20:01:48.999Z,18.43
2023-02-14T20:04:19.851Z,17.63
2023-02-14T20:06:47.082Z,18.20
2023-02-14T20:09:15.152Z,16.63
2023-02-14T20:11:51.639Z,17.07
2023-02-14T20:14:26.938Z,16.97
2023-02-14T20:16:55.667Z,18.30
2023-02-14T20:19:27.147Z,18.13
2023-02-14T20:21:54.230Z,17.17
2023-02-14T20:24:26.698Z,20.20
2023-02-14T20:26:54.064Z,19.80
2023-02-14T20:29:22.839Z,20.20
2023-02-14T20:31:55.953Z,21.77
2023-02-14T20:34:23.080Z,20.90
2023-02-14T20:36:53.351Z,18.80
2023-02-14T20:39:23.738Z,17.17
2023-02-14T20:41:52.556Z,17.37
2023-02-14T20:44:21.818Z,16.43
2023-02-14T20:46:51.929Z,18.30
2023-02-14T20:49:20.367Z,18.17
2023-02-14T20:51:49.806Z,19.50
2023-02-14T20:54:21.029Z,20.47
2023-02-14T20:56:48.657Z,20.60
2023-02-14T20:59:15.526Z,19.93
2023-02-14T21:01:43.024Z,21.10
2023-02-14T21:04:09.958Z,20.47
2023-02-14T21:06:39.633Z,20.50
2023-02-14T21:09:06.898Z,21.13
2023-02-14T21:11:33.727Z,21.10
2023-02-14T21:14:01.850Z,20.07
2023-02-14T21:16:30.422Z,20.47
2023-02-14T21:19:01.618Z,20.93
2023-02-14T21:21:36.747Z,21.70
2023-02-14T21:24:06.649Z,21.50
2023-02-14T21:26:33.604Z,19.00
2023-02-14T21:29:01.846Z,17.73
2023-02-14T21:31:29.005Z,19.70
2023-02-14T21:33:58.483Z,19.23
2023-02-14T21:36:27.601Z,18.53
2023-02-14T21:38:59.159Z,19.37
2023-02-14T21:41:29.284Z,18.43
2023-02-14T21:43:57.621Z,20.77
2023-02-14T21:46:31.284Z,19.27
2023-02-14T21:49:21.995Z,20.73
2023-02-14T21:51:49.457Z,19.07
2023-02-14T21:54:16.808Z,18.13
2023-02-14T21:56:44.312Z,19.23
2023-02-14T21:59:11.819Z,17.50
2023-02-14T22:01:41.431Z,17.30
2023-02-14T22:04:10.931Z,17.80
2023-02-14T22:06:40.109Z,17.93
2023-02-14T22:09:08.052Z,17.87
2023-02-14T22:11:35.661Z,17.70
2023-02-14T22:14:02.638Z,17.53
2023-02-14T22:16:29.601Z,16.57
2023-02-14T22:18:56.598Z,16.10
2023-02-14T22:21:25.416Z,17.50
2023-02-14T22:23:53.338Z,17.27
2023-02-14T22:26:28.989Z,17.70
2023-02-14T22:28:59.370Z,16.67
2023-02-14T22:31:29.597Z,16.57
2023-02-14T22:33:56.696Z,18.60
2023-02-14T22:36:23.626Z,18.60
2023-02-14T22:38:50.666Z,18.53
2023-02-14T22:41:25.440Z,18.93
2023-02-14T22:43:55.752Z,17.73
2023-02-14T22:46:26.012Z,17.83
2023-02-14T22:48:54.295Z,18.90
2023-02-14T22:51:27.227Z,18.97
2023-02-14T22:54:00.700Z,20.93
2023-02-14T22:56:34.604Z,21.87
2023-02-14T22:59:07.340Z,21.70
2023-02-14T23:01:35.993Z,21.20
2023-02-14T23:04:03.887Z,22.00
2023-02-14T23:06:33.330Z,20.50
2023-02-14T23:09:00.961Z,19.33
2023-02-14T23:11:33.169Z,19.47
2023-02-14T23:14:19.124Z,19.77
2023-02-14T23:17:05.173Z,19.77
2023-02-14T23:19:53.063Z,19.37
2023-02-14T23:22:40.648Z,20.23
2023-02-14T23:25:10.641Z,21.70
2023-02-14T23:27:43.692Z,21.43
2023-02-14T23:30:14.981Z,20.00
2023-02-14T23:32:42.454Z,20.67
2023-02-14T23:35:09.373Z,20.77
2023-02-14T23:37:36.197Z,19.00
2023-02-14T23:40:04.145Z,19.03
2023-02-14T23:42:31.162Z,20.07
2023-02-14T23:45:18.101Z,19.37
2023-02-14T23:47:45.123Z,19.87
2023-02-14T23:50:15.040Z,19.47
2023-02-14T23:52:42.511Z,20.10
2023-02-14T23:55:09.630Z,19.83
2023-02-14T23:57:37.188Z,21.50
